sensor_id;sensor_type;location;lat;lon;timestamp;pressure;altitude;pressure_sealevel;temperature;humidity
76553;BME280;65395;53.168;18.156;2023-04-15T00:01:44;100244.45;;;8.75;71.30
76553;BME280;65395;53.168;18.156;2023-04-15T00:04:11;100245.75;;;8.72;71.31
76553;BME280;65395;53.168;18.156;2023-04-15T00:06:37;100249.95;;;8.68;71.53
76553;BME280;65395;53.168;18.156;2023-04-15T00:09:05;100248.66;;;8.66;71.76
76553;BME280;65395;53.168;18.156;2023-04-15T00:11:32;100249.44;;;8.63;71.71
76553;BME280;65395;53.168;18.156;2023-04-15T00:13:59;100251.67;;;8.60;71.96
76553;BME280;65395;53.168;18.156;2023-04-15T00:16:26;100253.86;;;8.58;72.12
76553;BME280;65395;53.168;18.156;2023-04-15T00:18:53;100249.69;;;8.55;72.30
76553;BME280;65395;53.168;18.156;2023-04-15T00:21:20;100247.46;;;8.53;72.45
76553;BME280;65395;53.168;18.156;2023-04-15T00:23:47;100247.38;;;8.50;72.22
76553;BME280;65395;53.168;18.156;2023-04-15T00:26:18;100245.99;;;8.47;72.47
76553;BME280;65395;53.168;18.156;2023-04-15T00:28:46;100243.35;;;8.44;72.61
76553;BME280;65395;53.168;18.156;2023-04-15T00:31:13;100240.13;;;8.41;73.04
76553;BME280;65395;53.168;18.156;2023-04-15T00:33:41;100238.88;;;8.40;73.30
76553;BME280;65395;53.168;18.156;2023-04-15T00:36:08;100238.84;;;8.38;72.88
76553;BME280;65395;53.168;18.156;2023-04-15T00:38:36;100240.52;;;8.36;72.96
76553;BME280;65395;53.168;18.156;2023-04-15T00:41:03;100244.84;;;8.34;73.17
76553;BME280;65395;53.168;18.156;2023-04-15T00:43:30;100244.45;;;8.35;73.28
76553;BME280;65395;53.168;18.156;2023-04-15T00:45:58;100244.90;;;8.38;73.54
76553;BME280;65395;53.168;18.156;2023-04-15T00:48:27;100244.74;;;8.42;73.58
76553;BME280;65395;53.168;18.156;2023-04-15T00:50:54;100242.46;;;8.48;73.40
76553;BME280;65395;53.168;18.156;2023-04-15T00:53:21;100244.83;;;8.54;73.14
76553;BME280;65395;53.168;18.156;2023-04-15T00:55:48;100241.91;;;8.60;73.06
76553;BME280;65395;53.168;18.156;2023-04-15T00:58:15;100247.40;;;8.66;73.00
76553;BME280;65395;53.168;18.156;2023-04-15T01:00:42;100245.11;;;8.73;73.02
76553;BME280;65395;53.168;18.156;2023-04-15T01:03:09;100241.20;;;8.79;72.99
76553;BME280;65395;53.168;18.156;2023-04-15T01:05:37;100239.88;;;8.84;73.10
76553;BME280;65395;53.168;18.156;2023-04-15T01:08:05;100242.48;;;8.88;72.77
76553;BME280;65395;53.168;18.156;2023-04-15T01:10:32;100244.31;;;8.94;72.85
76553;BME280;65395;53.168;18.156;2023-04-15T01:12:59;100244.71;;;8.99;72.50
76553;BME280;65395;53.168;18.156;2023-04-15T01:15:25;100247.48;;;9.04;72.57
76553;BME280;65395;53.168;18.156;2023-04-15T01:17:53;100242.41;;;9.08;72.38
76553;BME280;65395;53.168;18.156;2023-04-15T01:20:20;100239.20;;;9.13;72.43
76553;BME280;65395;53.168;18.156;2023-04-15T01:22:48;100240.20;;;9.16;72.39
76553;BME280;65395;53.168;18.156;2023-04-15T01:25:17;100239.32;;;9.19;72.21
76553;BME280;65395;53.168;18.156;2023-04-15T01:27:45;100240.73;;;9.23;72.14
76553;BME280;65395;53.168;18.156;2023-04-15T01:30:13;100240.59;;;9.26;72.22
76553;BME280;65395;53.168;18.156;2023-04-15T01:32:39;100243.39;;;9.28;72.17
76553;BME280;65395;53.168;18.156;2023-04-15T01:35:06;100241.91;;;9.30;72.05
76553;BME280;65395;53.168;18.156;2023-04-15T01:37:35;100244.94;;;9.31;72.08
76553;BME280;65395;53.168;18.156;2023-04-15T01:40:02;100240.38;;;9.33;72.01
76553;BME280;65395;53.168;18.156;2023-04-15T01:42:30;100243.64;;;9.36;72.02
76553;BME280;65395;53.168;18.156;2023-04-15T01:44:56;100238.14;;;9.38;71.81
76553;BME280;65395;53.168;18.156;2023-04-15T01:47:23;100241.92;;;9.41;71.88
76553;BME280;65395;53.168;18.156;2023-04-15T01:49:50;100241.31;;;9.44;71.84
76553;BME280;65395;53.168;18.156;2023-04-15T01:52:17;100241.96;;;9.46;71.84
76553;BME280;65395;53.168;18.156;2023-04-15T01:54:43;100241.60;;;9.46;71.86
76553;BME280;65395;53.168;18.156;2023-04-15T01:57:12;100242.52;;;9.47;71.76
76553;BME280;65395;53.168;18.156;2023-04-15T01:59:38;100243.14;;;9.49;71.82
76553;BME280;65395;53.168;18.156;2023-04-15T02:02:05;100240.90;;;9.51;71.68
76553;BME280;65395;53.168;18.156;2023-04-15T02:04:34;100242.65;;;9.52;71.73
76553;BME280;65395;53.168;18.156;2023-04-15T02:07:01;100239.69;;;9.54;71.71
76553;BME280;65395;53.168;18.156;2023-04-15T02:09:28;100241.19;;;9.56;71.65
76553;BME280;65395;53.168;18.156;2023-04-15T02:11:55;100244.05;;;9.57;71.55
76553;BME280;65395;53.168;18.156;2023-04-15T02:14:23;100243.88;;;9.59;71.50
76553;BME280;65395;53.168;18.156;2023-04-15T02:16:50;100243.75;;;9.59;71.60
76553;BME280;65395;53.168;18.156;2023-04-15T02:19:17;100242.27;;;9.60;71.51
76553;BME280;65395;53.168;18.156;2023-04-15T02:21:43;100244.39;;;9.62;71.47
76553;BME280;65395;53.168;18.156;2023-04-15T02:24:10;100243.84;;;9.64;71.52
76553;BME280;65395;53.168;18.156;2023-04-15T02:26:40;100240.69;;;9.66;71.44
76553;BME280;65395;53.168;18.156;2023-04-15T02:29:08;100237.77;;;9.68;71.37
76553;BME280;65395;53.168;18.156;2023-04-15T02:31:34;100242.23;;;9.69;71.47
76553;BME280;65395;53.168;18.156;2023-04-15T02:34:05;100242.65;;;9.70;71.33
76553;BME280;65395;53.168;18.156;2023-04-15T02:36:32;100242.05;;;9.70;71.39
76553;BME280;65395;53.168;18.156;2023-04-15T02:39:00;100243.71;;;9.72;71.39
76553;BME280;65395;53.168;18.156;2023-04-15T02:41:28;100239.64;;;9.73;71.33
76553;BME280;65395;53.168;18.156;2023-04-15T02:43:55;100241.67;;;9.74;71.29
76553;BME280;65395;53.168;18.156;2023-04-15T02:46:22;100240.11;;;9.76;71.36
76553;BME280;65395;53.168;18.156;2023-04-15T02:48:49;100242.50;;;9.78;71.17
76553;BME280;65395;53.168;18.156;2023-04-15T02:51:18;100242.77;;;9.80;71.27
76553;BME280;65395;53.168;18.156;2023-04-15T02:53:46;100237.11;;;9.81;71.27
76553;BME280;65395;53.168;18.156;2023-04-15T02:56:14;100238.01;;;9.82;71.17
76553;BME280;65395;53.168;18.156;2023-04-15T02:58:43;100237.77;;;9.83;71.18
76553;BME280;65395;53.168;18.156;2023-04-15T03:01:11;100238.23;;;9.85;71.22
76553;BME280;65395;53.168;18.156;2023-04-15T03:03:38;100241.11;;;9.88;71.05
76553;BME280;65395;53.168;18.156;2023-04-15T03:06:05;100242.08;;;9.90;71.04
76553;BME280;65395;53.168;18.156;2023-04-15T03:08:34;100240.04;;;9.92;71.01
76553;BME280;65395;53.168;18.156;2023-04-15T03:11:02;100244.86;;;9.94;70.98
76553;BME280;65395;53.168;18.156;2023-04-15T03:13:28;100243.77;;;9.95;70.94
76553;BME280;65395;53.168;18.156;2023-04-15T03:15:56;100246.45;;;9.95;70.96
76553;BME280;65395;53.168;18.156;2023-04-15T03:18:23;100243.79;;;9.98;70.83
76553;BME280;65395;53.168;18.156;2023-04-15T03:20:50;100245.02;;;10.00;70.77
76553;BME280;65395;53.168;18.156;2023-04-15T03:23:17;100243.15;;;10.01;70.88
76553;BME280;65395;53.168;18.156;2023-04-15T03:25:44;100242.51;;;10.02;70.77
76553;BME280;65395;53.168;18.156;2023-04-15T03:28:11;100241.99;;;10.04;70.78
76553;BME280;65395;53.168;18.156;2023-04-15T03:30:38;100242.89;;;10.04;70.81
76553;BME280;65395;53.168;18.156;2023-04-15T03:33:05;100243.13;;;10.05;70.73
76553;BME280;65395;53.168;18.156;2023-04-15T03:35:32;100247.75;;;10.07;70.72
76553;BME280;65395;53.168;18.156;2023-04-15T03:37:59;100247.88;;;10.08;70.71
76553;BME280;65395;53.168;18.156;2023-04-15T03:40:26;100247.13;;;10.09;70.67
76553;BME280;65395;53.168;18.156;2023-04-15T03:42:52;100246.00;;;10.10;70.64
76553;BME280;65395;53.168;18.156;2023-04-15T03:45:19;100248.61;;;10.12;70.63
76553;BME280;65395;53.168;18.156;2023-04-15T03:47:46;100249.27;;;10.14;70.71
76553;BME280;65395;53.168;18.156;2023-04-15T03:50:13;100246.11;;;10.14;70.61
76553;BME280;65395;53.168;18.156;2023-04-15T03:52:39;100252.63;;;10.14;70.57
76553;BME280;65395;53.168;18.156;2023-04-15T03:55:06;100246.72;;;10.15;70.50
76553;BME280;65395;53.168;18.156;2023-04-15T03:57:34;100249.04;;;10.16;70.62
76553;BME280;65395;53.168;18.156;2023-04-15T04:00:04;100249.56;;;10.16;70.59
76553;BME280;65395;53.168;18.156;2023-04-15T04:02:38;100250.70;;;10.16;70.58
76553;BME280;65395;53.168;18.156;2023-04-15T04:05:05;100250.91;;;10.17;70.53
76553;BME280;65395;53.168;18.156;2023-04-15T04:07:32;100252.50;;;10.19;70.54
76553;BME280;65395;53.168;18.156;2023-04-15T04:09:58;100251.52;;;10.20;70.48
76553;BME280;65395;53.168;18.156;2023-04-15T04:12:25;100251.70;;;10.22;70.51
76553;BME280;65395;53.168;18.156;2023-04-15T04:14:52;100252.20;;;10.23;70.43
76553;BME280;65395;53.168;18.156;2023-04-15T04:17:18;100252.57;;;10.24;70.40
76553;BME280;65395;53.168;18.156;2023-04-15T04:19:45;100247.77;;;10.24;70.42
76553;BME280;65395;53.168;18.156;2023-04-15T04:22:12;100253.23;;;10.25;70.41
76553;BME280;65395;53.168;18.156;2023-04-15T04:24:38;100252.04;;;10.26;70.45
76553;BME280;65395;53.168;18.156;2023-04-15T04:27:05;100249.91;;;10.27;70.43
76553;BME280;65395;53.168;18.156;2023-04-15T04:29:31;100254.02;;;10.27;70.36
76553;BME280;65395;53.168;18.156;2023-04-15T04:31:58;100251.33;;;10.28;70.39
76553;BME280;65395;53.168;18.156;2023-04-15T04:34:25;100250.89;;;10.29;70.38
76553;BME280;65395;53.168;18.156;2023-04-15T04:36:52;100254.14;;;10.30;70.39
76553;BME280;65395;53.168;18.156;2023-04-15T04:39:18;100254.34;;;10.30;70.37
76553;BME280;65395;53.168;18.156;2023-04-15T04:41:45;100255.82;;;10.31;70.37
76553;BME280;65395;53.168;18.156;2023-04-15T04:44:11;100255.77;;;10.33;70.26
76553;BME280;65395;53.168;18.156;2023-04-15T04:46:38;100256.52;;;10.35;70.34
76553;BME280;65395;53.168;18.156;2023-04-15T04:49:04;100256.52;;;10.37;70.22
76553;BME280;65395;53.168;18.156;2023-04-15T04:51:31;100256.40;;;10.38;70.26
76553;BME280;65395;53.168;18.156;2023-04-15T04:53:58;100257.63;;;10.40;70.18
76553;BME280;65395;53.168;18.156;2023-04-15T04:56:25;100260.06;;;10.42;70.23
76553;BME280;65395;53.168;18.156;2023-04-15T04:58:51;100254.48;;;10.42;70.16
76553;BME280;65395;53.168;18.156;2023-04-15T05:01:18;100256.83;;;10.41;70.27
76553;BME280;65395;53.168;18.156;2023-04-15T05:03:45;100259.39;;;10.39;70.17
76553;BME280;65395;53.168;18.156;2023-04-15T05:06:12;100261.63;;;10.40;70.11
76553;BME280;65395;53.168;18.156;2023-04-15T05:08:38;100259.45;;;10.41;70.15
76553;BME280;65395;53.168;18.156;2023-04-15T05:11:06;100263.68;;;10.43;70.03
76553;BME280;65395;53.168;18.156;2023-04-15T05:13:33;100262.66;;;10.44;70.04
76553;BME280;65395;53.168;18.156;2023-04-15T05:16:00;100262.45;;;10.47;70.06
76553;BME280;65395;53.168;18.156;2023-04-15T05:18:26;100265.86;;;10.47;69.99
76553;BME280;65395;53.168;18.156;2023-04-15T05:20:53;100262.84;;;10.49;70.06
76553;BME280;65395;53.168;18.156;2023-04-15T05:23:20;100265.48;;;10.47;70.07
76553;BME280;65395;53.168;18.156;2023-04-15T05:25:47;100271.27;;;10.49;70.08
76553;BME280;65395;53.168;18.156;2023-04-15T05:28:15;100269.61;;;10.50;70.19
76553;BME280;65395;53.168;18.156;2023-04-15T05:30:42;100269.39;;;10.50;70.11
76553;BME280;65395;53.168;18.156;2023-04-15T05:33:08;100271.04;;;10.50;70.11
76553;BME280;65395;53.168;18.156;2023-04-15T05:35:35;100274.01;;;10.52;70.12
76553;BME280;65395;53.168;18.156;2023-04-15T05:38:03;100275.98;;;10.53;70.24
76553;BME280;65395;53.168;18.156;2023-04-15T05:40:29;100281.30;;;10.54;70.15
76553;BME280;65395;53.168;18.156;2023-04-15T05:42:56;100279.52;;;10.55;70.23
76553;BME280;65395;53.168;18.156;2023-04-15T05:45:23;100283.05;;;10.55;70.22
76553;BME280;65395;53.168;18.156;2023-04-15T05:47:50;100282.02;;;10.55;70.51
76553;BME280;65395;53.168;18.156;2023-04-15T05:50:19;100283.13;;;10.54;70.67
76553;BME280;65395;53.168;18.156;2023-04-15T05:52:47;100282.63;;;10.52;71.22
76553;BME280;65395;53.168;18.156;2023-04-15T05:55:13;100285.09;;;10.51;71.35
76553;BME280;65395;53.168;18.156;2023-04-15T05:57:40;100289.91;;;10.49;71.51
76553;BME280;65395;53.168;18.156;2023-04-15T06:00:07;100289.98;;;10.48;72.06
76553;BME280;65395;53.168;18.156;2023-04-15T06:02:36;100291.42;;;10.44;72.75
76553;BME280;65395;53.168;18.156;2023-04-15T06:05:03;100291.47;;;10.40;72.54
76553;BME280;65395;53.168;18.156;2023-04-15T06:07:30;100293.20;;;10.37;72.83
76553;BME280;65395;53.168;18.156;2023-04-15T06:09:57;100295.82;;;10.35;73.51
76553;BME280;65395;53.168;18.156;2023-04-15T06:12:24;100296.59;;;10.30;73.68
76553;BME280;65395;53.168;18.156;2023-04-15T06:14:50;100294.02;;;10.24;73.74
76553;BME280;65395;53.168;18.156;2023-04-15T06:17:17;100297.21;;;10.25;74.27
76553;BME280;65395;53.168;18.156;2023-04-15T06:19:44;100299.17;;;10.21;74.27
76553;BME280;65395;53.168;18.156;2023-04-15T06:22:11;100300.58;;;10.18;75.22
76553;BME280;65395;53.168;18.156;2023-04-15T06:24:38;100305.98;;;10.12;75.25
76553;BME280;65395;53.168;18.156;2023-04-15T06:27:05;100307.56;;;10.07;75.41
76553;BME280;65395;53.168;18.156;2023-04-15T06:29:32;100301.42;;;10.00;75.32
76553;BME280;65395;53.168;18.156;2023-04-15T06:31:59;100305.22;;;10.03;75.53
76553;BME280;65395;53.168;18.156;2023-04-15T06:34:27;100303.19;;;10.02;75.94
76553;BME280;65395;53.168;18.156;2023-04-15T06:36:53;100305.81;;;9.97;76.11
76553;BME280;65395;53.168;18.156;2023-04-15T06:39:20;100305.68;;;9.93;76.11
76553;BME280;65395;53.168;18.156;2023-04-15T06:41:47;100304.04;;;9.91;76.13
76553;BME280;65395;53.168;18.156;2023-04-15T06:44:14;100311.84;;;9.91;76.43
76553;BME280;65395;53.168;18.156;2023-04-15T06:46:41;100309.38;;;9.90;76.10
76553;BME280;65395;53.168;18.156;2023-04-15T06:49:07;100313.12;;;9.89;76.78
76553;BME280;65395;53.168;18.156;2023-04-15T06:51:34;100317.98;;;9.89;76.70
76553;BME280;65395;53.168;18.156;2023-04-15T06:54:02;100316.70;;;9.86;76.95
76553;BME280;65395;53.168;18.156;2023-04-15T06:56:32;100315.33;;;9.86;77.04
76553;BME280;65395;53.168;18.156;2023-04-15T06:58:59;100320.44;;;9.86;76.84
76553;BME280;65395;53.168;18.156;2023-04-15T07:01:26;100323.60;;;9.86;77.25
76553;BME280;65395;53.168;18.156;2023-04-15T07:03:54;100322.88;;;9.85;77.33
76553;BME280;65395;53.168;18.156;2023-04-15T07:06:20;100326.39;;;9.86;77.27
76553;BME280;65395;53.168;18.156;2023-04-15T07:08:47;100330.37;;;9.85;77.22
76553;BME280;65395;53.168;18.156;2023-04-15T07:11:14;100331.75;;;9.87;77.11
76553;BME280;65395;53.168;18.156;2023-04-15T07:13:40;100332.27;;;9.88;77.52
76553;BME280;65395;53.168;18.156;2023-04-15T07:16:07;100335.65;;;9.87;77.27
76553;BME280;65395;53.168;18.156;2023-04-15T07:18:34;100336.09;;;9.89;77.39
76553;BME280;65395;53.168;18.156;2023-04-15T07:21:00;100337.49;;;9.89;77.70
76553;BME280;65395;53.168;18.156;2023-04-15T07:23:28;100340.62;;;9.89;77.66
76553;BME280;65395;53.168;18.156;2023-04-15T07:25:55;100343.11;;;9.90;77.95
76553;BME280;65395;53.168;18.156;2023-04-15T07:28:22;100344.95;;;9.91;77.66
76553;BME280;65395;53.168;18.156;2023-04-15T07:30:49;100346.29;;;9.93;78.04
76553;BME280;65395;53.168;18.156;2023-04-15T07:33:16;100350.33;;;9.94;78.56
76553;BME280;65395;53.168;18.156;2023-04-15T07:35:43;100349.09;;;9.92;78.50
76553;BME280;65395;53.168;18.156;2023-04-15T07:38:10;100348.57;;;9.92;79.00
76553;BME280;65395;53.168;18.156;2023-04-15T07:40:39;100350.27;;;9.91;78.70
76553;BME280;65395;53.168;18.156;2023-04-15T07:43:05;100350.38;;;9.91;78.60
76553;BME280;65395;53.168;18.156;2023-04-15T07:45:32;100354.43;;;9.91;78.87
76553;BME280;65395;53.168;18.156;2023-04-15T07:47:59;100353.78;;;9.92;78.72
76553;BME280;65395;53.168;18.156;2023-04-15T07:50:27;100354.26;;;9.92;78.96
76553;BME280;65395;53.168;18.156;2023-04-15T07:52:54;100357.66;;;9.93;78.60
76553;BME280;65395;53.168;18.156;2023-04-15T07:55:21;100355.05;;;9.95;78.70
76553;BME280;65395;53.168;18.156;2023-04-15T07:57:49;100355.77;;;9.97;78.48
76553;BME280;65395;53.168;18.156;2023-04-15T08:00:16;100355.62;;;10.00;78.63
76553;BME280;65395;53.168;18.156;2023-04-15T08:02:43;100356.70;;;10.02;78.81
76553;BME280;65395;53.168;18.156;2023-04-15T08:05:12;100359.52;;;10.01;78.95
76553;BME280;65395;53.168;18.156;2023-04-15T08:07:40;100363.51;;;10.04;78.62
76553;BME280;65395;53.168;18.156;2023-04-15T08:10:07;100360.91;;;10.07;78.59
76553;BME280;65395;53.168;18.156;2023-04-15T08:12:34;100362.72;;;10.10;78.78
76553;BME280;65395;53.168;18.156;2023-04-15T08:15:01;100363.58;;;10.11;79.03
76553;BME280;65395;53.168;18.156;2023-04-15T08:17:28;100366.50;;;10.12;78.75
76553;BME280;65395;53.168;18.156;2023-04-15T08:19:55;100367.88;;;10.15;78.45
76553;BME280;65395;53.168;18.156;2023-04-15T08:22:22;100363.37;;;10.20;78.31
76553;BME280;65395;53.168;18.156;2023-04-15T08:24:49;100367.73;;;10.24;78.24
76553;BME280;65395;53.168;18.156;2023-04-15T08:27:16;100369.08;;;10.28;78.18
76553;BME280;65395;53.168;18.156;2023-04-15T08:29:43;100373.34;;;10.32;78.17
76553;BME280;65395;53.168;18.156;2023-04-15T08:32:11;100371.95;;;10.36;78.40
76553;BME280;65395;53.168;18.156;2023-04-15T08:34:37;100373.96;;;10.35;78.27
76553;BME280;65395;53.168;18.156;2023-04-15T08:37:04;100374.90;;;10.36;78.27
76553;BME280;65395;53.168;18.156;2023-04-15T08:39:45;100378.45;;;10.35;78.52
76553;BME280;65395;53.168;18.156;2023-04-15T08:42:26;100378.91;;;10.35;78.12
76553;BME280;65395;53.168;18.156;2023-04-15T08:44:59;100381.86;;;10.35;78.32
76553;BME280;65395;53.168;18.156;2023-04-15T08:47:29;100381.85;;;10.36;78.47
76553;BME280;65395;53.168;18.156;2023-04-15T08:49:57;100382.47;;;10.37;78.33
76553;BME280;65395;53.168;18.156;2023-04-15T08:52:25;100386.73;;;10.40;78.17
76553;BME280;65395;53.168;18.156;2023-04-15T08:54:59;100384.91;;;10.42;78.31
76553;BME280;65395;53.168;18.156;2023-04-15T08:57:27;100382.31;;;10.46;78.07
76553;BME280;65395;53.168;18.156;2023-04-15T08:59:55;100386.98;;;10.53;78.02
76553;BME280;65395;53.168;18.156;2023-04-15T09:02:23;100386.05;;;10.61;77.79
76553;BME280;65395;53.168;18.156;2023-04-15T09:04:52;100388.23;;;10.66;77.87
76553;BME280;65395;53.168;18.156;2023-04-15T09:07:18;100393.27;;;10.73;77.99
76553;BME280;65395;53.168;18.156;2023-04-15T09:09:45;100389.27;;;10.78;77.91
76553;BME280;65395;53.168;18.156;2023-04-15T09:12:13;100384.52;;;10.81;77.94
76553;BME280;65395;53.168;18.156;2023-04-15T09:14:44;100387.84;;;10.82;77.75
76553;BME280;65395;53.168;18.156;2023-04-15T09:17:18;100385.64;;;10.83;77.75
76553;BME280;65395;53.168;18.156;2023-04-15T09:19:46;100387.48;;;10.84;77.53
76553;BME280;65395;53.168;18.156;2023-04-15T09:22:13;100390.06;;;10.84;77.42
76553;BME280;65395;53.168;18.156;2023-04-15T09:24:40;100390.18;;;10.86;77.43
76553;BME280;65395;53.168;18.156;2023-04-15T09:27:08;100388.45;;;10.89;77.54
76553;BME280;65395;53.168;18.156;2023-04-15T09:29:34;100388.34;;;10.88;77.37
76553;BME280;65395;53.168;18.156;2023-04-15T09:32:11;100390.48;;;10.89;77.43
76553;BME280;65395;53.168;18.156;2023-04-15T09:34:38;100390.13;;;10.91;77.44
76553;BME280;65395;53.168;18.156;2023-04-15T09:37:05;100387.88;;;10.94;77.45
76553;BME280;65395;53.168;18.156;2023-04-15T09:39:44;100387.75;;;10.97;77.34
76553;BME280;65395;53.168;18.156;2023-04-15T09:42:12;100392.23;;;10.97;77.27
76553;BME280;65395;53.168;18.156;2023-04-15T09:44:39;100392.52;;;11.01;77.31
76553;BME280;65395;53.168;18.156;2023-04-15T09:47:06;100387.15;;;11.06;77.13
76553;BME280;65395;53.168;18.156;2023-04-15T09:49:33;100389.63;;;11.09;77.15
76553;BME280;65395;53.168;18.156;2023-04-15T09:52:00;100395.34;;;11.08;77.10
76553;BME280;65395;53.168;18.156;2023-04-15T09:54:37;100392.98;;;11.07;77.21
76553;BME280;65395;53.168;18.156;2023-04-15T09:57:06;100396.14;;;11.08;77.16
76553;BME280;65395;53.168;18.156;2023-04-15T09:59:33;100397.55;;;11.10;76.96
76553;BME280;65395;53.168;18.156;2023-04-15T10:02:03;100396.89;;;11.15;77.12
76553;BME280;65395;53.168;18.156;2023-04-15T10:04:34;100398.04;;;11.18;77.01
76553;BME280;65395;53.168;18.156;2023-04-15T10:07:04;100394.91;;;11.21;76.93
76553;BME280;65395;53.168;18.156;2023-04-15T10:09:32;100396.14;;;11.26;76.88
76553;BME280;65395;53.168;18.156;2023-04-15T10:12:01;100398.56;;;11.31;76.81
76553;BME280;65395;53.168;18.156;2023-04-15T10:14:32;100397.56;;;11.35;76.93
76553;BME280;65395;53.168;18.156;2023-04-15T10:17:01;100401.39;;;11.38;76.97
76553;BME280;65395;53.168;18.156;2023-04-15T10:19:30;100400.88;;;11.39;76.81
76553;BME280;65395;53.168;18.156;2023-04-15T10:21:58;100395.76;;;11.39;76.52
76553;BME280;65395;53.168;18.156;2023-04-15T10:24:26;100395.52;;;11.35;76.48
76553;BME280;65395;53.168;18.156;2023-04-15T10:26:53;100397.95;;;11.35;76.60
76553;BME280;65395;53.168;18.156;2023-04-15T10:29:22;100399.65;;;11.35;76.67
76553;BME280;65395;53.168;18.156;2023-04-15T10:31:51;100396.48;;;11.32;76.78
76553;BME280;65395;53.168;18.156;2023-04-15T10:34:20;100400.52;;;11.31;76.78
76553;BME280;65395;53.168;18.156;2023-04-15T10:36:48;100400.62;;;11.32;76.78
76553;BME280;65395;53.168;18.156;2023-04-15T10:39:41;100403.25;;;11.32;76.76
76553;BME280;65395;53.168;18.156;2023-04-15T10:42:15;100407.10;;;11.32;76.47
76553;BME280;65395;53.168;18.156;2023-04-15T10:44:47;100407.55;;;11.33;76.52
76553;BME280;65395;53.168;18.156;2023-04-15T10:47:16;100410.45;;;11.32;76.38
76553;BME280;65395;53.168;18.156;2023-04-15T10:49:47;100409.02;;;11.31;76.49
76553;BME280;65395;53.168;18.156;2023-04-15T10:52:17;100408.39;;;11.33;76.66
76553;BME280;65395;53.168;18.156;2023-04-15T10:54:44;100409.85;;;11.34;76.78
76553;BME280;65395;53.168;18.156;2023-04-15T10:57:20;100407.84;;;11.34;76.97
76553;BME280;65395;53.168;18.156;2023-04-15T11:00:08;100411.53;;;11.36;77.00
76553;BME280;65395;53.168;18.156;2023-04-15T11:02:41;100414.91;;;11.34;76.81
76553;BME280;65395;53.168;18.156;2023-04-15T11:05:10;100420.48;;;11.35;76.98
76553;BME280;65395;53.168;18.156;2023-04-15T11:07:47;100418.08;;;11.37;76.91
76553;BME280;65395;53.168;18.156;2023-04-15T11:13:20;100418.09;;;11.41;77.09
76553;BME280;65395;53.168;18.156;2023-04-15T11:15:49;100418.27;;;11.40;77.14
76553;BME280;65395;53.168;18.156;2023-04-15T11:18:19;100421.08;;;11.42;77.19
76553;BME280;65395;53.168;18.156;2023-04-15T11:20:54;100420.18;;;11.39;77.20
76553;BME280;65395;53.168;18.156;2023-04-15T11:23:34;100422.66;;;11.35;77.34
76553;BME280;65395;53.168;18.156;2023-04-15T11:26:04;100423.38;;;11.33;77.20
76553;BME280;65395;53.168;18.156;2023-04-15T11:28:35;100425.14;;;11.32;77.01
76553;BME280;65395;53.168;18.156;2023-04-15T11:31:15;100426.95;;;11.32;77.05
76553;BME280;65395;53.168;18.156;2023-04-15T11:36:24;100431.38;;;11.37;77.38
76553;BME280;65395;53.168;18.156;2023-04-15T11:38:53;100435.44;;;11.37;77.23
76553;BME280;65395;53.168;18.156;2023-04-15T11:41:21;100434.48;;;11.38;77.35
76553;BME280;65395;53.168;18.156;2023-04-15T11:43:49;100436.20;;;11.38;77.57
76553;BME280;65395;53.168;18.156;2023-04-15T11:46:16;100439.39;;;11.35;77.49
76553;BME280;65395;53.168;18.156;2023-04-15T11:48:44;100438.54;;;11.31;77.78
76553;BME280;65395;53.168;18.156;2023-04-15T11:51:12;100435.39;;;11.27;77.82
76553;BME280;65395;53.168;18.156;2023-04-15T11:53:45;100438.46;;;11.23;77.81
76553;BME280;65395;53.168;18.156;2023-04-15T11:56:23;100438.85;;;11.22;77.99
76553;BME280;65395;53.168;18.156;2023-04-15T11:58:53;100438.91;;;11.23;78.10
76553;BME280;65395;53.168;18.156;2023-04-15T12:01:33;100439.88;;;11.21;77.98
76553;BME280;65395;53.168;18.156;2023-04-15T12:04:01;100437.91;;;11.19;78.17
76553;BME280;65395;53.168;18.156;2023-04-15T12:06:32;100443.41;;;11.18;77.87
76553;BME280;65395;53.168;18.156;2023-04-15T12:09:15;100444.43;;;11.20;77.92
76553;BME280;65395;53.168;18.156;2023-04-15T12:11:48;100446.27;;;11.23;78.01
76553;BME280;65395;53.168;18.156;2023-04-15T12:14:26;100447.83;;;11.25;78.10
76553;BME280;65395;53.168;18.156;2023-04-15T12:16:57;100447.67;;;11.25;78.22
76553;BME280;65395;53.168;18.156;2023-04-15T12:19:30;100451.19;;;11.23;78.09
76553;BME280;65395;53.168;18.156;2023-04-15T12:22:01;100453.48;;;11.21;77.98
76553;BME280;65395;53.168;18.156;2023-04-15T12:24:32;100450.05;;;11.21;77.83
76553;BME280;65395;53.168;18.156;2023-04-15T12:27:02;100455.11;;;11.25;78.01
76553;BME280;65395;53.168;18.156;2023-04-15T12:29:30;100451.27;;;11.29;77.98
76553;BME280;65395;53.168;18.156;2023-04-15T12:32:04;100453.73;;;11.35;78.07
76553;BME280;65395;53.168;18.156;2023-04-15T12:34:36;100452.86;;;11.44;77.91
76553;BME280;65395;53.168;18.156;2023-04-15T12:37:05;100452.77;;;11.49;77.60
76553;BME280;65395;53.168;18.156;2023-04-15T12:39:35;100455.88;;;11.56;77.65
76553;BME280;65395;53.168;18.156;2023-04-15T12:42:03;100457.20;;;11.62;77.63
76553;BME280;65395;53.168;18.156;2023-04-15T12:44:31;100457.36;;;11.69;77.75
76553;BME280;65395;53.168;18.156;2023-04-15T12:46:58;100459.22;;;11.74;77.36
76553;BME280;65395;53.168;18.156;2023-04-15T12:49:26;100456.57;;;11.76;77.07
76553;BME280;65395;53.168;18.156;2023-04-15T12:51:55;100459.72;;;11.74;77.13
76553;BME280;65395;53.168;18.156;2023-04-15T12:54:22;100461.68;;;11.79;77.17